Springerton, Illinois
Current Conditions -  °F | °C
As of 7:35 PM on Friday 26 Dec 2014 (Local Time) from KCUL Reporting Station
Clear Clear  
Wind Chill: 44°   Ceiling: Unl
Heat Index: 48°   Visibility: 10mi
Dew Point: 43°   Wind: 10mph
Humidity: 82%   Direction: 170°S
Pressure: 30.13"   Gusts: NA
Location:  38.18°N, 88.35°W
Report Text: KCUL 270135Z AUTO 17009KT 10SM CLR 09/06 A3013 RMK AO2 T00900061
Loading
Personal Weather Stations






























Interactive Weather Map New forecast layout! Learn more

10-Day Weather Forecast

Advertisements
Track Severe Weather on mobile